Погода Лучноена 2 недели

Минская область, Белоруссия

26 мая-08 июня
  • 26мая
    Сегодня
    +11°
    +25°
    Небольшая облачность
    ВремяПогодаТемператураВлажностьДавлениеВетер, м/сВероятность осадков
    00:00Ясно и безоблачно+16°C58 %756 мм1.3 м/с2 %
    03:00Ясно и безоблачно+13°C74 %756 мм0.8 м/с2 %
    06:00Ясно и безоблачно+12°C74 %756 мм0.8 м/с2 %
    09:00Ясно и безоблачно+18°C65 %756 мм0.6 м/с2 %
    12:00Небольшая облачность+23°C39 %756 мм1.9 м/с2 %
    15:00Небольшая облачность+25°C37 %756 мм1.7 м/с2 %
    18:00Ясно и безоблачно+25°C38 %755 мм2.2 м/с2 %
    21:00Ясно и безоблачно+20°C64 %755 мм0.3 м/с2 %
  • 27мая
    Понедельник
    +13°
    +27°
    Практически безоблачно
    ВремяПогодаТемператураВлажностьДавлениеВетер, м/сВероятность осадков
    00:00Ясно и безоблачно+16°C71 %755 мм0.5 м/с2 %
    03:00Практически безоблачно+13°C80 %755 мм0.5 м/с2 %
    06:00Облачно с прояснениями+14°C80 %756 мм0.7 м/с2 %
    09:00Ясно и безоблачно+20°C57 %756 мм0.9 м/с2 %
    12:00Облачно с прояснениями+25°C39 %756 мм2.1 м/с2 %
    15:00Практически безоблачно+27°C39 %755 мм1.9 м/с1 %
    18:00Практически безоблачно+26°C40 %754 мм2.4 м/с2 %
    21:00Ясно и безоблачно+22°C60 %753 мм1.6 м/с2 %
  • 28мая
    Вторник
    +14°
    +26°
    Облачно с прояснениями
    ВремяПогодаТемператураВлажностьДавлениеВетер, м/сВероятность осадков
    00:00Ясно и безоблачно+17°C81 %753 мм0.8 м/с2 %
    03:00Ясно и безоблачно+14°C88 %753 мм0.7 м/с2 %
    06:00Ясно и безоблачно+15°C84 %753 мм1.0 м/с2 %
    09:00Практически безоблачно+19°C68 %753 мм1.1 м/с2 %
    12:00Практически безоблачно+24°C37 %753 мм2.1 м/с2 %
    15:00Облачно с прояснениями+25°C34 %751 мм1.6 м/с15 %
    18:00Практически безоблачно+25°C36 %750 мм2.1 м/с17 %
    21:00Ясно и безоблачно+22°C65 %750 мм0.6 м/с4 %
  • 29мая
    Среда
    +14°
    +27°
    Практически безоблачно
    ВремяПогодаТемператураВлажностьДавлениеВетер, м/сВероятность осадков
    00:00Ясно и безоблачно+17°C66 %750 мм0.7 м/с2 %
    03:00Ясно и безоблачно+16°C68 %749 мм1.0 м/с2 %
    06:00Ясно и безоблачно+15°C72 %749 мм1.1 м/с2 %
    09:00Практически безоблачно+21°C58 %749 мм0.9 м/с2 %
    12:00Практически безоблачно+26°C34 %749 мм2.6 м/с9 %
    15:00Практически безоблачно+27°C30 %748 мм2.1 м/с12 %
    18:00Практически безоблачно+26°C33 %747 мм2.5 м/с7 %
    21:00Небольшая облачность+21°C58 %746 мм1.4 м/с4 %
  • 30мая
    Четверг
    +13°
    +26°
    Небольшая облачность
    ВремяПогодаТемператураВлажностьДавлениеВетер, м/сВероятность осадков
    00:00Облачно с прояснениями+17°C64 %746 мм0.6 м/с2 %
    03:00Облачно с прояснениями+15°C58 %746 мм1.1 м/с2 %
    06:00Облачно с прояснениями+15°C63 %745 мм1.4 м/с2 %
    09:00Облачно с прояснениями+19°C58 %745 мм1.7 м/с3 %
    12:00Пасмурно, сплошная облачность+24°C48 %745 мм2.9 м/с15 %
    15:00Небольшая облачность+25°C43 %745 мм2.5 м/с43 %
    18:00Практически безоблачно+25°C54 %744 мм3.2 м/с47 %
    21:00Ясно и безоблачно+22°C75 %744 мм1.3 м/с19 %
Мы используем cookies
Соглашаюсь